Time;durP1;ratioP1;P1;durP2;ratioP2;P2;SDS_P1;SDS_P2;PMS_P1;PMS_P2;Temp;Humidity;BMP_temperature;BMP_pressure;BME280_temperature;BME280_humidity;BME280_pressure;Samples;Min_cycle;Max_cycle;Signal;HPM_P1;HPM_P2
2023/03/07 00:00:59;;;;;;;;;;;;;;;17.28;57.79;97809.84;2068246;28;19926;-55
2023/03/07 00:01:59;;;;;;;;;;;;;;;17.29;57.62;97812.31;2067330;28;19932;-55
2023/03/07 00:03:01;;;;;;;;;;;;;;;17.30;57.71;97810.44;2055134;28;19999;-56
2023/03/07 00:04:02;;;;;;;;;;;;;;;17.31;57.65;97815.59;2069543;28;19964;-53
2023/03/07 00:05:04;;;;;;;;;;;;;;;17.32;57.76;97821.78;2071127;28;19933;-57
2023/03/07 00:06:06;;;;;;;;;;;;;;;17.33;57.55;97820.75;2071048;28;20546;-55
2023/03/07 00:07:07;;;;;;;;;;;;;;;17.34;57.57;97825.06;2070271;28;20288;-54
2023/03/07 00:08:08;;;;;;;;;;;;;;;17.35;57.58;97832.06;2068631;28;20015;-56
2023/03/07 00:09:09;;;;;;;;;;;;;;;17.34;57.47;97827.75;2066848;28;19933;-57
2023/03/07 00:10:10;;;;;;;;;;;;;;;17.35;57.73;97832.06;2073030;28;19929;-54
2023/03/07 00:11:12;;;;;;;;;;;;;;;17.35;57.57;97827.53;2069071;28;20881;-57
2023/03/07 00:12:13;;;;;;;;;;;;;;;17.35;57.52;97822.16;2066749;28;19959;-57
2023/03/07 00:13:14;;;;;;;;;;;;;;;17.37;57.64;97830.00;2070960;28;19929;-54
2023/03/07 00:14:14;;;;;;;;;;;;;;;17.37;57.51;97824.63;2069614;28;19926;-55
2023/03/07 00:15:16;;;;;;;;;;;;;;;17.37;57.43;97825.47;2073002;28;19976;-56
2023/03/07 00:16:18;;;;;;;;;;;;;;;17.38;57.47;97832.47;2073085;28;19925;-55
2023/03/07 00:17:19;;;;;;;;;;;;;;;17.39;57.37;97825.25;2062083;28;19964;-56
2023/03/07 00:18:19;;;;;;;;;;;;;;;17.38;57.41;97828.94;2068120;28;20020;-56
2023/03/07 00:19:23;;;;;;;;;;;;;;;17.39;57.46;97828.75;2067926;28;20510;-57
2023/03/07 00:20:23;;;;;;;;;;;;;;;17.40;57.43;97834.94;2066832;28;21946;-55
2023/03/07 00:21:30;;;;;;;;;;;;;;;17.40;57.37;97829.56;2069242;28;19941;-57
2023/03/07 00:22:30;;;;;;;;;;;;;;;17.40;57.37;97832.25;2070693;28;20505;-56
2023/03/07 00:23:32;;;;;;;;;;;;;;;17.41;57.37;97836.56;2068867;28;19935;-56
2023/03/07 00:24:32;;;;;;;;;;;;;;;17.40;57.38;97838.44;2074885;28;19956;-58
2023/03/07 00:25:34;;;;;;;;;;;;;;;17.40;57.20;97834.94;2070468;28;19941;-56
2023/03/07 00:26:38;;;;;;;;;;;;;;;17.41;57.23;97833.88;2075888;28;19929;-56
2023/03/07 00:27:39;;;;;;;;;;;;;;;17.42;57.29;97830.19;2073805;28;19964;-57
2023/03/07 00:28:40;;;;;;;;;;;;;;;17.43;57.16;97834.50;2073666;28;19951;-58
2023/03/07 00:29:41;;;;;;;;;;;;;;;17.42;57.35;97831.00;2071455;28;20268;-59
2023/03/07 00:30:42;;;;;;;;;;;;;;;17.42;57.27;97830.19;2070079;28;20376;-58
2023/03/07 00:31:43;;;;;;;;;;;;;;;17.42;57.25;97830.19;2073943;28;19960;-59
2023/03/07 00:32:44;;;;;;;;;;;;;;;17.42;57.16;97831.00;2061011;28;20445;-56
2023/03/07 00:33:46;;;;;;;;;;;;;;;17.43;57.09;97826.44;2068109;28;19971;-57
2023/03/07 00:34:48;;;;;;;;;;;;;;;17.43;57.08;97821.09;2069512;28;19933;-59
2023/03/07 00:35:56;;;;;;;;;;;;;;;17.43;57.18;97826.44;2071833;28;19974;-59
2023/03/07 00:36:57;;;;;;;;;;;;;;;17.41;57.14;97824.00;2071796;28;20040;-58
2023/03/07 00:37:58;;;;;;;;;;;;;;;17.42;57.25;97824.81;2068666;28;20004;-57
2023/03/07 00:38:58;;;;;;;;;;;;;;;17.42;57.18;97824.81;2072995;28;20554;-59
2023/03/07 00:40:00;;;;;;;;;;;;;;;17.43;57.17;97821.91;2069663;28;19933;-57
2023/03/07 00:41:01;;;;;;;;;;;;;;;17.43;57.16;97823.78;2072464;28;19925;-56
2023/03/07 00:42:03;;;;;;;;;;;;;;;17.45;57.14;97826.25;2069477;28;19944;-57
2023/03/07 00:43:04;;;;;;;;;;;;;;;17.43;57.15;97831.81;2072264;28;19975;-58
2023/03/07 00:44:06;;;;;;;;;;;;;;;17.43;57.15;97829.94;2070237;28;19969;-58
2023/03/07 00:45:07;;;;;;;;;;;;;;;17.44;57.13;97833.47;2073093;28;20024;-59
2023/03/07 00:46:09;;;;;;;;;;;;;;;17.43;57.09;97826.44;2073884;28;19959;-58
2023/03/07 00:47:09;;;;;;;;;;;;;;;17.43;57.13;97824.59;2071886;28;19929;-58
2023/03/07 00:48:10;;;;;;;;;;;;;;;17.42;57.09;97816.78;2066507;28;19982;-58
2023/03/07 00:49:11;;;;;;;;;;;;;;;17.42;57.08;97819.47;2071567;28;20383;-57
2023/03/07 00:50:14;;;;;;;;;;;;;;;17.42;57.06;97817.59;2069632;28;19994;-58
2023/03/07 00:51:15;;;;;;;;;;;;;;;17.42;57.04;97817.59;2071785;28;19933;-58
2023/03/07 00:52:17;;;;;;;;;;;;;;;17.43;56.96;97826.44;2058444;28;23381;-57
2023/03/07 00:53:17;;;;;;;;;;;;;;;17.42;57.03;97817.59;2067723;28;19933;-57
2023/03/07 00:54:19;;;;;;;;;;;;;;;17.42;57.03;97822.97;2066570;28;20006;-56
2023/03/07 00:55:19;;;;;;;;;;;;;;;17.43;56.94;97816.53;2068119;28;19933;-56
2023/03/07 00:56:22;;;;;;;;;;;;;;;17.43;56.96;97815.72;2071325;28;19933;-58
2023/03/07 00:57:22;;;;;;;;;;;;;;;17.43;56.98;97810.38;2072410;28;20358;-58
2023/03/07 00:58:24;;;;;;;;;;;;;;;17.42;57.00;97811.41;2066992;28;19937;-57
2023/03/07 00:59:24;;;;;;;;;;;;;;;17.42;56.88;97809.56;2070929;28;23890;-58
2023/03/07 01:00:26;;;;;;;;;;;;;;;17.41;56.84;97809.75;2069989;28;20137;-57
2023/03/07 01:01:26;;;;;;;;;;;;;;;17.41;57.06;97810.59;2068363;28;19978;-56
2023/03/07 01:02:28;;;;;;;;;;;;;;;17.42;56.91;97814.09;2070259;28;19998;-56
2023/03/07 01:03:29;;;;;;;;;;;;;;;17.41;57.23;97809.75;2073351;28;20379;-58
2023/03/07 01:04:30;;;;;;;;;;;;;;;17.40;56.82;97808.94;2072900;28;19925;-58
2023/03/07 01:05:32;;;;;;;;;;;;;;;17.41;56.76;97805.25;2072673;28;19941;-59
2023/03/07 01:06:34;;;;;;;;;;;;;;;17.42;56.84;97806.06;2071200;28;19974;-57
2023/03/07 01:07:34;;;;;;;;;;;;;;;17.42;56.95;97803.38;2070939;28;19933;-58
2023/03/07 01:08:36;;;;;;;;;;;;;;;17.40;56.67;97794.72;2064283;28;19980;-56
2023/03/07 01:09:36;;;;;;;;;;;;;;;17.41;56.80;97799.03;2066371;28;19925;-59
2023/03/07 01:10:38;;;;;;;;;;;;;;;17.40;56.84;97798.22;2067029;28;19933;-56
2023/03/07 01:11:38;;;;;;;;;;;;;;;17.39;56.80;97799.25;2073277;28;19979;-58
2023/03/07 01:12:42;;;;;;;;;;;;;;;17.40;56.87;97808.94;2068425;28;20468;-59
2023/03/07 01:13:44;;;;;;;;;;;;;;;17.40;56.91;97808.13;2072668;28;19929;-59
2023/03/07 01:14:44;;;;;;;;;;;;;;;17.39;56.86;97801.13;2069006;28;19991;-58
2023/03/07 01:15:45;;;;;;;;;;;;;;;17.38;56.78;97804.81;2068337;28;19979;-57
2023/03/07 01:16:46;;;;;;;;;;;;;;;17.38;56.77;97808.34;2069108;28;19978;-59
2023/03/07 01:17:48;;;;;;;;;;;;;;;17.37;56.79;97804.00;2061649;28;21295;-56
2023/03/07 01:18:49;;;;;;;;;;;;;;;17.37;56.71;97803.19;2066728;28;19967;-59
2023/03/07 01:19:50;;;;;;;;;;;;;;;17.35;56.87;97803.41;2071952;28;20008;-56
2023/03/07 01:20:52;;;;;;;;;;;;;;;17.36;56.80;97801.56;2068226;28;20354;-56
2023/03/07 01:21:54;;;;;;;;;;;;;;;17.36;56.75;97798.88;2060216;28;19991;-57
2023/03/07 01:22:54;;;;;;;;;;;;;;;17.35;56.82;97800.72;2066117;28;19940;-57
2023/03/07 01:23:57;;;;;;;;;;;;;;;17.36;56.82;97791.66;2047591;28;1826080;-63
2023/03/07 01:24:57;;;;;;;;;;;;;;;17.35;56.90;97794.53;2071047;28;20006;-59
2023/03/07 01:25:59;;;;;;;;;;;;;;;17.35;56.64;97795.34;2067619;28;19941;-56
2023/03/07 01:26:59;;;;;;;;;;;;;;;17.35;56.77;97794.53;2072770;28;20512;-58
2023/03/07 01:28:02;;;;;;;;;;;;;;;17.33;56.74;97789.41;2065895;28;19929;-57
2023/03/07 01:29:04;;;;;;;;;;;;;;;17.34;56.70;97792.91;2071237;28;20354;-57
2023/03/07 01:30:06;;;;;;;;;;;;;;;17.33;56.74;97793.97;2067623;28;19940;-57
2023/03/07 01:31:06;;;;;;;;;;;;;;;17.32;56.62;97795.78;2065550;28;19976;-58
2023/03/07 01:32:08;;;;;;;;;;;;;;;17.31;56.76;97796.03;2060677;28;21094;-57
2023/03/07 01:33:09;;;;;;;;;;;;;;;17.30;56.83;97797.88;2069483;28;19929;-56
2023/03/07 01:34:10;;;;;;;;;;;;;;;17.32;56.83;97795.78;2069151;28;20703;-58
2023/03/07 01:35:10;;;;;;;;;;;;;;;17.31;56.77;97787.97;2071009;28;19930;-57
2023/03/07 01:36:18;;;;;;;;;;;;;;;17.30;56.90;97783.63;2072025;28;19929;-59
2023/03/07 01:37:18;;;;;;;;;;;;;;;17.31;56.81;97785.31;2065037;28;19929;-56
2023/03/07 01:38:20;;;;;;;;;;;;;;;17.30;56.75;97783.63;2068132;28;20060;-55
2023/03/07 01:39:20;;;;;;;;;;;;;;;17.29;56.95;97780.16;2073731;28;20930;-59
2023/03/07 01:40:23;;;;;;;;;;;;;;;17.30;56.73;97784.50;2069341;28;19936;-56
2023/03/07 01:41:24;;;;;;;;;;;;;;;17.29;56.87;97782.00;2071808;28;19929;-59
2023/03/07 01:42:29;;;;;;;;;;;;;;;17.29;56.82;97787.38;2070611;28;19995;-56
2023/03/07 01:43:31;;;;;;;;;;;;;;;17.26;56.85;97777.91;2068489;28;19983;-58
2023/03/07 01:44:57;;;;;;;;;;;;;;;17.28;56.70;97777.69;2065220;28;19943;-57
2023/03/07 01:46:22;;;;;;;;;;;;;;;17.25;56.90;97778.13;2065178;28;19929;-60
2023/03/07 01:47:23;;;;;;;;;;;;;;;17.26;56.76;97777.91;2072771;28;19972;-59
2023/03/07 01:48:24;;;;;;;;;;;;;;;17.25;56.84;97776.28;2071632;28;19932;-58
2023/03/07 01:49:27;;;;;;;;;;;;;;;17.25;56.82;97772.78;2069053;28;20511;-59
2023/03/07 01:50:28;;;;;;;;;;;;;;;17.25;56.93;97778.13;2069310;28;20403;-58
2023/03/07 01:51:31;;;;;;;;;;;;;;;17.24;56.92;97773.78;2070470;28;19925;-60
2023/03/07 01:52:33;;;;;;;;;;;;;;;17.21;56.94;97772.34;2068035;28;19929;-57
2023/03/07 01:53:34;;;;;;;;;;;;;;;17.22;56.90;97779.38;2069994;28;19929;-58
2023/03/07 01:54:37;;;;;;;;;;;;;;;17.21;56.82;97775.03;2067692;28;19991;-58
2023/03/07 01:55:38;;;;;;;;;;;;;;;17.19;56.92;97772.59;2071653;28;19929;-57
2023/03/07 01:56:39;;;;;;;;;;;;;;;17.19;56.93;97769.91;2070549;28;20357;-59
2023/03/07 01:57:43;;;;;;;;;;;;;;;17.18;57.01;97768.25;2069756;28;20022;-60
2023/03/07 01:58:44;;;;;;;;;;;;;;;17.16;56.97;97781.06;2071478;28;19932;-58
2023/03/07 01:59:47;;;;;;;;;;;;;;;17.16;56.95;97774.84;2069592;28;19964;-58
2023/03/07 02:00:48;;;;;;;;;;;;;;;17.17;57.03;97781.88;2068168;28;19992;-59
2023/03/07 02:01:50;;;;;;;;;;;;;;;17.18;56.93;97780.84;2066202;28;19929;-56
2023/03/07 02:02:54;;;;;;;;;;;;;;;17.17;56.87;97774.66;2063950;28;19934;-58
2023/03/07 02:03:58;;;;;;;;;;;;;;;17.16;56.90;97774.84;2068966;28;19929;-56
2023/03/07 02:05:00;;;;;;;;;;;;;;;17.15;56.74;97771.38;2067275;28;19959;-57
2023/03/07 02:06:05;;;;;;;;;;;;;;;17.14;57.06;97767.06;2067386;28;19936;-58
2023/03/07 02:07:08;;;;;;;;;;;;;;;17.14;56.86;97769.72;2067588;28;19939;-58
2023/03/07 02:08:11;;;;;;;;;;;;;;;17.12;56.98;97766.44;2070804;28;19976;-56
2023/03/07 02:09:14;;;;;;;;;;;;;;;17.12;57.02;97763.75;2070803;28;19987;-57
2023/03/07 02:10:17;;;;;;;;;;;;;;;17.13;56.90;97768.09;2067949;28;20283;-57
2023/03/07 02:11:17;;;;;;;;;;;;;;;17.13;56.84;97770.78;2069071;28;19925;-53
2023/03/07 02:12:19;;;;;;;;;;;;;;;17.14;56.89;97764.38;2068080;28;19936;-51
2023/03/07 02:13:19;;;;;;;;;;;;;;;17.12;56.92;97765.63;2070160;28;19929;-55
2023/03/07 02:14:21;;;;;;;;;;;;;;;17.12;56.73;97769.13;2067932;28;20713;-52
2023/03/07 02:15:22;;;;;;;;;;;;;;;17.12;56.82;97762.94;2071588;28;20591;-56
2023/03/07 02:16:23;;;;;;;;;;;;;;;17.09;56.86;97764.19;2069564;28;19987;-58
2023/03/07 02:17:24;;;;;;;;;;;;;;;17.09;56.88;97761.50;2069394;28;19939;-52
2023/03/07 02:18:28;;;;;;;;;;;;;;;17.10;56.87;97765.81;2067425;28;19991;-53
2023/03/07 02:19:33;;;;;;;;;;;;;;;17.09;56.96;97766.06;2071082;28;20910;-54
2023/03/07 02:20:40;;;;;;;;;;;;;;;17.08;56.65;97767.09;2058085;28;20392;-55
2023/03/07 02:21:42;;;;;;;;;;;;;;;17.08;56.89;97762.56;2068269;28;19929;-53
2023/03/07 02:22:45;;;;;;;;;;;;;;;17.07;57.00;97760.91;2067629;28;20031;-56
2023/03/07 02:23:50;;;;;;;;;;;;;;;17.09;56.93;97763.38;2068745;28;20576;-57
2023/03/07 02:24:55;;;;;;;;;;;;;;;17.08;56.95;97761.75;2070068;28;19980;-55
2023/03/07 02:26:01;;;;;;;;;;;;;;;17.07;56.82;97760.06;2072308;28;19999;-55
2023/03/07 02:27:04;;;;;;;;;;;;;;;17.07;56.93;97754.72;2071817;28;19929;-57
2023/03/07 02:28:06;;;;;;;;;;;;;;;17.02;57.00;97752.72;2069017;28;19929;-57
2023/03/07 02:29:07;;;;;;;;;;;;;;;17.04;56.99;97753.28;2068205;28;20580;-53
2023/03/07 02:30:10;;;;;;;;;;;;;;;17.03;56.88;97754.34;2068915;28;20028;-57
2023/03/07 02:31:10;;;;;;;;;;;;;;;17.02;56.97;97752.72;2072208;28;21351;-54
2023/03/07 02:32:12;;;;;;;;;;;;;;;17.03;57.01;97757.00;2068898;28;20367;-57
2023/03/07 02:33:12;;;;;;;;;;;;;;;17.01;56.93;97758.25;2062682;28;19929;-53
2023/03/07 02:34:21;;;;;;;;;;;;;;;16.97;56.99;97750.66;2066813;28;20350;-55
2023/03/07 02:35:22;;;;;;;;;;;;;;;16.97;57.14;97749.84;2071013;28;19976;-54
2023/03/07 02:36:26;;;;;;;;;;;;;;;16.98;56.88;97751.47;2070061;28;19929;-56
2023/03/07 02:37:29;;;;;;;;;;;;;;;16.97;57.15;97747.97;2066014;28;19933;-58
2023/03/07 02:38:32;;;;;;;;;;;;;;;16.95;57.06;97750.03;2068742;28;20019;-54
2023/03/07 02:39:32;;;;;;;;;;;;;;;16.98;56.80;97752.28;2071529;28;19926;-54
2023/03/07 02:40:34;;;;;;;;;;;;;;;16.97;57.00;97744.50;2068913;28;20007;-57
2023/03/07 02:41:36;;;;;;;;;;;;;;;16.96;57.01;97746.31;2069130;28;19932;-58
2023/03/07 02:42:40;;;;;;;;;;;;;;;16.97;56.93;97752.53;2072802;28;19972;-57
2023/03/07 02:43:40;;;;;;;;;;;;;;;16.93;57.08;97754.78;2070190;28;20476;-55
2023/03/07 02:44:44;;;;;;;;;;;;;;;16.93;57.10;97748.59;2066069;28;19933;-54
2023/03/07 02:45:44;;;;;;;;;;;;;;;16.93;57.10;97748.59;2069070;28;19978;-54
2023/03/07 02:46:45;;;;;;;;;;;;;;;16.95;56.96;97746.56;2073384;28;20338;-54
2023/03/07 02:47:46;;;;;;;;;;;;;;;16.94;56.94;97755.63;2072475;28;19929;-54
2023/03/07 02:48:48;;;;;;;;;;;;;;;16.93;56.94;97753.97;2065973;28;19925;-54
2023/03/07 02:49:48;;;;;;;;;;;;;;;16.90;57.06;97754.41;2067988;28;19929;-53
2023/03/07 02:50:50;;;;;;;;;;;;;;;16.91;57.03;97764.91;2065067;28;20027;-58
2023/03/07 02:51:56;;;;;;;;;;;;;;;16.91;57.15;97754.19;2067695;28;19962;-53
2023/03/07 02:52:57;;;;;;;;;;;;;;;16.90;57.01;97754.41;2068662;28;19929;-57
2023/03/07 02:53:58;;;;;;;;;;;;;;;16.88;57.19;97756.47;2070668;28;20776;-58
2023/03/07 02:54:59;;;;;;;;;;;;;;;16.89;56.96;97758.13;2069195;28;20026;-61
2023/03/07 02:56:00;;;;;;;;;;;;;;;16.89;57.04;97752.78;2069550;28;19941;-57
2023/03/07 02:57:01;;;;;;;;;;;;;;;16.88;56.97;97760.00;2073718;28;19937;-54
2023/03/07 02:58:03;;;;;;;;;;;;;;;16.89;56.98;97760.81;2072421;28;19982;-54
2023/03/07 02:59:04;;;;;;;;;;;;;;;16.88;57.04;97761.81;2068811;28;19925;-61
2023/03/07 03:00:06;;;;;;;;;;;;;;;16.87;56.98;97755.66;2070012;28;20017;-62
2023/03/07 03:01:07;;;;;;;;;;;;;;;16.87;56.97;97758.31;2068130;28;20505;-58
2023/03/07 03:02:08;;;;;;;;;;;;;;;16.84;57.01;97756.06;2071349;28;20501;-62
2023/03/07 03:03:10;;;;;;;;;;;;;;;16.84;57.13;97757.94;2063873;28;19929;-52
2023/03/07 03:04:11;;;;;;;;;;;;;;;16.86;57.05;97761.22;2068112;28;19936;-58
2023/03/07 03:05:13;;;;;;;;;;;;;;;16.83;57.08;97765.16;2070154;28;20016;-49
2023/03/07 03:06:13;;;;;;;;;;;;;;;16.82;57.07;97757.31;2069127;28;19933;-58
2023/03/07 03:07:15;;;;;;;;;;;;;;;16.83;57.00;97765.16;2069190;28;19925;-61
2023/03/07 03:08:15;;;;;;;;;;;;;;;16.82;57.16;97760.00;2067133;28;19997;-59
2023/03/07 03:09:17;;;;;;;;;;;;;;;16.82;57.09;97765.34;2070785;28;19929;-50
2023/03/07 03:10:17;;;;;;;;;;;;;;;16.81;57.07;97763.72;2073194;28;20024;-54
2023/03/07 03:11:18;;;;;;;;;;;;;;;16.82;57.02;97765.34;2069404;28;20586;-56
2023/03/07 03:12:19;;;;;;;;;;;;;;;16.77;57.08;97763.34;2065383;28;19971;-58
2023/03/07 03:13:22;;;;;;;;;;;;;;;16.76;57.36;97769.69;2069189;28;20023;-61
2023/03/07 03:14:22;;;;;;;;;;;;;;;16.75;57.10;97758.16;2068371;28;20006;-54
2023/03/07 03:15:24;;;;;;;;;;;;;;;16.76;57.19;97764.31;2071227;28;19929;-54
2023/03/07 03:16:24;;;;;;;;;;;;;;;16.78;57.19;97769.50;2069053;28;20359;-59
2023/03/07 03:17:26;;;;;;;;;;;;;;;16.75;57.17;97766.19;2074293;28;19929;-58
2023/03/07 03:18:27;;;;;;;;;;;;;;;16.75;57.10;97765.38;2073287;28;19925;-54
2023/03/07 03:19:29;;;;;;;;;;;;;;;16.74;57.11;97772.59;2072470;28;19928;-52
2023/03/07 03:20:29;;;;;;;;;;;;;;;16.73;57.21;97768.25;2065599;28;20292;-56
2023/03/07 03:21:31;;;;;;;;;;;;;;;16.70;57.13;97763.31;2061461;28;20014;-61
2023/03/07 03:22:32;;;;;;;;;;;;;;;16.72;57.22;97766.59;2068076;28;19953;-53
2023/03/07 03:23:33;;;;;;;;;;;;;;;16.70;57.16;97763.31;2070773;28;19969;-53
2023/03/07 03:24:36;;;;;;;;;;;;;;;16.71;57.19;97762.25;2067646;28;19929;-60
2023/03/07 03:25:38;;;;;;;;;;;;;;;16.73;57.16;97757.53;2070784;28;19960;-58
2023/03/07 03:26:38;;;;;;;;;;;;;;;16.71;57.08;97756.91;2073744;28;19928;-58
2023/03/07 03:27:40;;;;;;;;;;;;;;;16.68;57.26;97756.53;2069839;28;19929;-57
2023/03/07 03:28:42;;;;;;;;;;;;;;;16.70;57.17;97757.97;2073454;28;20358;-61
2023/03/07 03:29:44;;;;;;;;;;;;;;;16.70;57.09;97751.78;2071532;28;19998;-54
2023/03/07 03:30:44;;;;;;;;;;;;;;;16.71;57.09;97753.41;2068393;28;19955;-51
2023/03/07 03:31:45;;;;;;;;;;;;;;;16.67;57.18;97753.03;2071848;28;20046;-53
2023/03/07 03:32:46;;;;;;;;;;;;;;;16.69;57.22;97758.19;2059963;28;19933;-55
2023/03/07 03:33:48;;;;;;;;;;;;;;;16.69;57.21;97758.19;2072832;28;19983;-63
2023/03/07 03:34:48;;;;;;;;;;;;;;;16.65;57.21;97757.75;2070019;28;19925;-58
2023/03/07 03:35:50;;;;;;;;;;;;;;;16.66;57.19;97753.22;2069530;28;19933;-54
2023/03/07 03:36:51;;;;;;;;;;;;;;;16.66;57.07;97754.06;2068286;28;19925;-55
2023/03/07 03:37:52;;;;;;;;;;;;;;;16.62;57.28;97763.53;2068539;28;19971;-53
2023/03/07 03:38:53;;;;;;;;;;;;;;;16.65;57.21;97748.91;2072755;28;19955;-57
2023/03/07 03:39:55;;;;;;;;;;;;;;;16.62;57.14;97758.19;2070042;28;19929;-61
2023/03/07 03:40:55;;;;;;;;;;;;;;;16.60;57.54;97751.41;2072234;28;20537;-55
2023/03/07 03:41:57;;;;;;;;;;;;;;;16.59;57.29;97750.59;2069880;28;19983;-52
2023/03/07 03:42:57;;;;;;;;;;;;;;;16.58;57.33;97751.63;2069767;28;19935;-54
2023/03/07 03:44:00;;;;;;;;;;;;;;;16.57;57.40;97758.00;2070287;28;20068;-59
2023/03/07 03:45:00;;;;;;;;;;;;;;;16.55;57.44;97757.41;2067178;28;19963;-60
2023/03/07 03:46:02;;;;;;;;;;;;;;;16.56;57.21;97747.53;2066202;28;19929;-56
2023/03/07 03:47:03;;;;;;;;;;;;;;;16.56;57.27;97755.56;2070548;28;19929;-55
2023/03/07 03:48:04;;;;;;;;;;;;;;;16.57;57.19;97754.50;2067922;28;19932;-57
2023/03/07 03:49:05;;;;;;;;;;;;;;;16.57;57.31;97743.81;2070467;28;20028;-57
2023/03/07 03:50:07;;;;;;;;;;;;;;;16.56;57.32;97742.16;2068283;28;19936;-56
2023/03/07 03:51:08;;;;;;;;;;;;;;;16.56;57.31;97748.34;2062151;28;19933;-55
2023/03/07 03:52:10;;;;;;;;;;;;;;;16.59;57.14;97747.09;2067502;28;19925;-56
2023/03/07 03:53:10;;;;;;;;;;;;;;;16.54;57.36;97745.88;2068805;28;19925;-55
2023/03/07 03:54:12;;;;;;;;;;;;;;;16.54;57.34;97734.34;2064562;28;19999;-57
2023/03/07 03:55:12;;;;;;;;;;;;;;;16.54;57.37;97745.03;2070033;28;19929;-56
2023/03/07 03:56:14;;;;;;;;;;;;;;;16.53;57.31;97754.94;2069552;28;20451;-56
2023/03/07 03:57:16;;;;;;;;;;;;;;;16.52;57.38;97749.81;2073385;28;19940;-57
2023/03/07 03:58:18;;;;;;;;;;;;;;;16.51;57.34;97750.81;2072237;28;19971;-57
2023/03/07 03:59:21;;;;;;;;;;;;;;;16.52;57.33;97755.16;2070310;28;20405;-57
2023/03/07 04:00:22;;;;;;;;;;;;;;;16.51;57.30;97737.44;2066088;28;19933;-56
2023/03/07 04:01:23;;;;;;;;;;;;;;;16.52;57.33;97739.91;2069290;28;19925;-57
2023/03/07 04:02:25;;;;;;;;;;;;;;;16.52;57.21;97739.91;2070316;28;19941;-57
2023/03/07 04:03:25;;;;;;;;;;;;;;;16.49;57.31;97737.66;2066525;28;19972;-56
2023/03/07 04:04:27;;;;;;;;;;;;;;;16.50;57.24;97736.63;2066033;28;20014;-57
2023/03/07 04:05:27;;;;;;;;;;;;;;;16.47;57.35;97744.25;2061537;28;19940;-56
2023/03/07 04:06:30;;;;;;;;;;;;;;;16.46;57.44;97739.91;2065174;28;19937;-53
2023/03/07 04:07:30;;;;;;;;;;;;;;;16.45;57.36;97744.47;2066936;28;19926;-57
2023/03/07 04:08:32;;;;;;;;;;;;;;;16.46;57.42;97747.94;2073322;28;19987;-55
2023/03/07 04:09:32;;;;;;;;;;;;;;;16.44;57.40;97750.84;2070678;28;19925;-55
2023/03/07 04:10:34;;;;;;;;;;;;;;;16.45;57.43;97751.69;2070033;28;19934;-57
2023/03/07 04:11:35;;;;;;;;;;;;;;;16.44;57.43;97744.69;2067202;28;19980;-56
2023/03/07 04:12:36;;;;;;;;;;;;;;;16.46;57.41;97750.63;2071600;28;19988;-55
2023/03/07 04:13:36;;;;;;;;;;;;;;;16.45;57.35;97754.34;2069759;28;20557;-57
2023/03/07 04:14:39;;;;;;;;;;;;;;;16.44;57.32;97750.03;2065428;28;19929;-56
2023/03/07 04:15:40;;;;;;;;;;;;;;;16.47;57.25;97749.63;2067083;28;20145;-56
2023/03/07 04:16:42;;;;;;;;;;;;;;;16.47;57.38;97750.44;2071169;28;20564;-57
2023/03/07 04:17:42;;;;;;;;;;;;;;;16.49;57.22;97752.88;2070236;28;19986;-56
2023/03/07 04:18:44;;;;;;;;;;;;;;;16.50;57.18;97749.19;2067105;28;19925;-56
2023/03/07 04:19:45;;;;;;;;;;;;;;;16.49;57.24;97744.84;2065888;28;20359;-55
2023/03/07 04:20:47;;;;;;;;;;;;;;;16.49;57.22;97748.38;2071022;28;19933;-56
2023/03/07 04:21:47;;;;;;;;;;;;;;;16.49;57.14;97748.38;2070327;28;19933;-55
2023/03/07 04:22:49;;;;;;;;;;;;;;;16.50;57.11;97751.88;2072494;28;20956;-56
2023/03/07 04:23:54;;;;;;;;;;;;;;;16.49;57.18;97744.84;2062012;28;20019;-55
2023/03/07 04:24:55;;;;;;;;;;;;;;;16.49;57.02;97748.38;2071848;28;20015;-57
2023/03/07 04:25:57;;;;;;;;;;;;;;;16.49;57.09;97758.22;2067059;28;19990;-56
2023/03/07 04:26:59;;;;;;;;;;;;;;;16.49;57.09;97752.88;2068282;28;19933;-56
2023/03/07 04:27:59;;;;;;;;;;;;;;;16.49;57.17;97753.72;2070223;28;19933;-56
2023/03/07 04:29:01;;;;;;;;;;;;;;;16.50;57.08;97744.66;2070074;28;19929;-56
2023/03/07 04:30:04;;;;;;;;;;;;;;;16.53;57.11;97754.13;2072144;28;20078;-57
2023/03/07 04:31:06;;;;;;;;;;;;;;;16.53;57.04;97743.41;2069142;28;19975;-55
2023/03/07 04:32:06;;;;;;;;;;;;;;;16.52;57.02;97752.50;2067738;28;19982;-56
2023/03/07 04:33:08;;;;;;;;;;;;;;;16.53;56.98;97744.22;2069277;28;20468;-57
2023/03/07 04:34:08;;;;;;;;;;;;;;;16.53;57.02;97749.59;2060860;28;19978;-56
2023/03/07 04:35:10;;;;;;;;;;;;;;;16.52;57.11;97753.31;2071461;28;19928;-56
2023/03/07 04:36:10;;;;;;;;;;;;;;;16.53;57.02;97743.41;2066433;28;19937;-57
2023/03/07 04:37:12;;;;;;;;;;;;;;;16.55;57.00;97746.72;2066960;28;19925;-55
2023/03/07 04:38:13;;;;;;;;;;;;;;;16.54;57.08;97739.69;2070357;28;19929;-51
2023/03/07 04:39:14;;;;;;;;;;;;;;;16.57;57.12;97749.97;2064844;28;23421;-57
2023/03/07 04:40:15;;;;;;;;;;;;;;;16.58;56.97;97746.28;2066500;28;20875;-56
2023/03/07 04:41:17;;;;;;;;;;;;;;;16.61;56.99;97750.41;2068622;28;19932;-52
2023/03/07 04:42:17;;;;;;;;;;;;;;;16.62;57.14;97758.19;2068009;28;21254;-56
2023/03/07 04:43:20;;;;;;;;;;;;;;;16.64;57.02;97756.13;2068888;28;19933;-54
2023/03/07 04:44:20;;;;;;;;;;;;;;;16.69;56.94;97750.16;2067139;28;19929;-56
2023/03/07 04:45:23;;;;;;;;;;;;;;;16.72;57.14;97749.72;2065232;28;19939;-56
2023/03/07 04:46:24;;;;;;;;;;;;;;;16.75;57.00;97758.16;2064227;28;20436;-57
2023/03/07 04:47:26;;;;;;;;;;;;;;;16.80;57.06;97757.56;2069038;28;20012;-54
2023/03/07 04:48:26;;;;;;;;;;;;;;;16.84;56.99;97753.41;2067883;28;20330;-56
2023/03/07 04:49:28;;;;;;;;;;;;;;;16.90;56.97;97759.75;2067809;28;19933;-53
2023/03/07 04:50:28;;;;;;;;;;;;;;;16.94;56.93;97758.31;2065017;28;19979;-57
2023/03/07 04:51:30;;;;;;;;;;;;;;;16.95;56.90;97752.72;2057679;28;19933;-52
2023/03/07 04:52:30;;;;;;;;;;;;;;;16.98;56.92;97752.28;2067478;28;19933;-57
2023/03/07 04:53:32;;;;;;;;;;;;;;;17.03;56.90;97757.00;2068838;28;20867;-55
2023/03/07 04:54:32;;;;;;;;;;;;;;;17.06;56.96;97758.44;2065258;28;19995;-56
2023/03/07 04:55:34;;;;;;;;;;;;;;;17.08;56.86;97754.53;2069018;28;19975;-56
2023/03/07 04:56:34;;;;;;;;;;;;;;;17.11;56.74;97756.75;2065515;28;20437;-55
2023/03/07 04:57:35;;;;;;;;;;;;;;;17.14;56.89;97759.00;2069013;28;20050;-55
2023/03/07 04:58:36;;;;;;;;;;;;;;;17.19;56.88;97761.06;2066545;28;20653;-55
2023/03/07 04:59:38;;;;;;;;;;;;;;;17.24;56.74;97757.72;2065457;28;19987;-57
2023/03/07 05:00:40;;;;;;;;;;;;;;;17.28;56.58;97756.25;2066615;28;21250;-57
2023/03/07 05:01:41;;;;;;;;;;;;;;;17.28;56.61;97754.38;2056111;28;20300;-56
2023/03/07 05:02:43;;;;;;;;;;;;;;;17.34;56.71;97750.03;2065292;28;19933;-57
2023/03/07 05:03:44;;;;;;;;;;;;;;;17.36;56.57;97748.78;2069488;28;19925;-56
2023/03/07 05:04:45;;;;;;;;;;;;;;;17.39;56.39;97750.19;2072084;28;20687;-56
2023/03/07 05:05:46;;;;;;;;;;;;;;;17.42;56.52;97747.91;2069086;28;19937;-55
2023/03/07 05:06:47;;;;;;;;;;;;;;;17.46;56.47;97750.97;2064267;28;20004;-55
2023/03/07 05:07:48;;;;;;;;;;;;;;;17.49;56.36;97752.38;2064776;28;20420;-56
2023/03/07 05:08:49;;;;;;;;;;;;;;;17.49;56.41;97747.84;2070489;28;19929;-56
2023/03/07 05:09:50;;;;;;;;;;;;;;;17.54;56.31;97744.50;2070537;28;19940;-56
2023/03/07 05:10:51;;;;;;;;;;;;;;;17.54;56.27;97749.88;2068397;28;19987;-56
2023/03/07 05:11:52;;;;;;;;;;;;;;;17.57;56.46;97752.94;2073123;28;19936;-57
2023/03/07 05:12:53;;;;;;;;;;;;;;;17.59;56.39;97740.13;2070909;28;19932;-56
2023/03/07 05:13:54;;;;;;;;;;;;;;;17.61;56.36;97739.94;2071136;28;20020;-57
2023/03/07 05:14:55;;;;;;;;;;;;;;;17.62;56.08;97739.69;2063290;28;19937;-56
2023/03/07 05:15:58;;;;;;;;;;;;;;;17.62;56.27;97728.97;2070243;28;19940;-57
2023/03/07 05:16:59;;;;;;;;;;;;;;;17.64;56.29;97729.59;2065606;28;19992;-56
2023/03/07 05:18:00;;;;;;;;;;;;;;;17.66;56.16;97721.31;2066002;28;20038;-56
2023/03/07 05:19:01;;;;;;;;;;;;;;;17.68;56.25;97727.28;2070329;28;20041;-57
2023/03/07 05:20:04;;;;;;;;;;;;;;;17.70;56.25;97733.25;2069577;28;19995;-55
2023/03/07 05:21:04;;;;;;;;;;;;;;;17.72;55.96;97733.00;2062236;28;19941;-55
2023/03/07 05:22:06;;;;;;;;;;;;;;;17.76;55.93;97736.91;2061315;28;20139;-56